CDT,Max TemperatureF,Mean TemperatureF,Min TemperatureF,Max Dew PointF,MeanDew PointF,Min DewpointF,Max Humidity, Mean Humidity, Min Humidity, Max Sea Level PressureIn, Mean Sea Level PressureIn, Min Sea Level PressureIn, Max VisibilityMiles, Mean VisibilityMiles, Min VisibilityMiles, Max Wind SpeedMPH, Mean Wind SpeedMPH, Max Gust SpeedMPH,PrecipitationIn, CloudCover, Events, WindDirDegrees
2013-6-1,90,82,73,72,71,70,94,78,54,30.00,29.94,29.88,10,10,8,14,8,18,0.00,5,Thunderstorm,152
2013-6-2,84,75,68,71,68,66,96,82,62,30.01,29.95,29.88,10,9,1,15,7,37,0.86,6,Rain-Thunderstorm,278
2013-6-3,86,78,71,70,67,64,90,72,51,29.96,29.92,29.87,10,10,10,7,3,,0.00,4,Rain,13
2013-6-4,91,80,69,73,69,64,90,70,55,29.95,29.91,29.85,10,10,10,7,2,,0.00,3,,79
2013-6-5,91,82,73,74,72,68,94,77,53,29.96,29.89,29.77,10,10,6,13,5,33,0.00,2,Rain-Thunderstorm,162
2013-6-6,87,78,69,73,69,66,94,82,61,29.88,29.81,29.77,10,9,2,28,9,39,0.22,3,Rain-Thunderstorm,274
2013-6-7,75,72,66,70,68,65,97,90,76,29.90,29.84,29.76,10,8,2,10,5,,0.05,5,Rain,304
2013-6-8,84,75,66,74,67,64,100,79,53,29.98,29.93,29.90,10,7,2,18,2,32,0.15,2,Rain,91
2013-6-9,87,78,70,74,70,67,97,84,65,29.99,29.93,29.88,10,8,0,17,7,31,1.48,5,Fog-Rain-Thunderstorm,179
2013-6-10,90,80,70,72,70,68,93,74,52,29.99,29.96,29.93,10,10,10,10,4,,0.00,1,,236
2013-6-11,91,82,73,74,73,71,100,76,53,30.10,30.04,29.99,10,10,6,12,4,,0.00,1,,241
2013-6-12,93,82,73,75,73,69,94,73,47,30.09,30.03,29.98,10,10,7,10,3,24,0.00,0,Rain,251
2013-6-13,91,82,73,75,74,70,94,78,54,30.04,29.96,29.87,10,10,10,23,8,34,0.00,1,,257
2013-6-14,88,80,72,76,66,60,82,61,40,29.98,29.94,29.90,10,10,10,9,5,21,0.00,1,,39
2013-6-15,90,78,66,69,65,61,84,62,42,30.03,29.98,29.95,10,10,10,8,2,,0.00,0,,116
2013-6-16,91,82,73,74,71,68,90,75,55,30.04,29.99,29.95,10,9,6,9,3,,0.00,1,Rain-Thunderstorm,183
2013-6-17,91,83,75,75,72,69,90,70,50,29.99,29.94,29.88,10,10,8,13,4,21,0.00,1,,231
2013-6-18,86,78,71,73,71,68,94,78,58,30.00,29.94,29.88,10,9,2,20,8,28,0.40,4,Rain-Thunderstorm,258
2013-6-19,86,78,71,72,71,69,94,81,57,30.03,29.99,29.92,10,10,2,8,2,20,0.02,4,Rain,190
2013-6-20,90,80,71,72,70,67,93,73,48,30.13,30.06,30.01,10,10,6,25,2,28,0.00,1,,80
2013-6-21,91,80,69,72,70,68,100,75,50,30.14,30.09,30.05,10,9,2,14,2,55,0.00,1,,84
2013-6-22,89,78,68,73,69,64,93,81,53,30.15,30.08,30.01,10,8,0,20,5,34,0.71,2,Fog-Rain,105
2013-6-23,91,80,71,73,70,68,96,78,52,30.09,30.04,30.00,10,9,5,12,1,,0.02,2,Rain,125
2013-6-24,90,80,71,74,72,70,100,88,59,30.15,30.09,30.04,10,10,5,18,5,30,0.13,2,Rain,160
2013-6-25,91,82,72,73,71,70,97,76,50,30.10,30.05,29.97,10,10,8,9,6,,0.00,1,,181
2013-6-26,91,82,73,73,72,71,97,75,52,30.05,29.99,29.92,10,10,10,18,7,32,0.00,1,,216
2013-6-27,93,85,77,75,73,70,88,70,53,30.00,29.95,29.90,10,10,10,12,6,,0.00,0,,242
2013-6-28,93,80,69,75,73,68,97,82,55,29.90,29.84,29.73,10,9,2,18,7,31,0.25,1,Rain-Thunderstorm,258
2013-6-29,91,80,70,75,69,63,97,73,42,29.78,29.74,29.70,10,10,10,12,4,20,0.00,1,,286
2013-6-30,88,78,70,68,65,62,87,65,43,29.82,29.76,29.72,10,10,10,13,3,21,0.00,1,,321